createdAt,value
2018-11-23T00:01:54.355Z,3.00
2018-11-23T00:07:35.581Z,3.00
2018-11-23T00:10:24.335Z,3.00
2018-11-23T00:13:12.024Z,3.00
2018-11-23T00:15:59.605Z,3.00
2018-11-23T00:18:47.209Z,3.00
2018-11-23T00:21:27.470Z,3.00
2018-11-23T00:24:07.977Z,3.00
2018-11-23T00:26:48.565Z,3.00
2018-11-23T00:29:29.923Z,3.00
2018-11-23T00:32:10.163Z,3.10
2018-11-23T00:34:50.848Z,3.10
2018-11-23T00:37:31.722Z,3.10
2018-11-23T00:40:13.071Z,3.20
2018-11-23T00:42:54.335Z,3.20
2018-11-23T00:45:35.663Z,3.10
2018-11-23T00:48:15.939Z,3.10
2018-11-23T00:50:56.924Z,3.20
2018-11-23T00:53:37.281Z,3.20
2018-11-23T00:56:17.669Z,3.10
2018-11-23T00:58:58.028Z,3.10
2018-11-23T01:01:57.726Z,3.10
2018-11-23T01:04:38.601Z,3.00
2018-11-23T01:07:19.638Z,3.00
2018-11-23T01:10:00.118Z,3.10
2018-11-23T01:12:40.504Z,3.10
2018-11-23T01:15:20.921Z,3.10
2018-11-23T01:18:01.414Z,3.10
2018-11-23T01:20:41.703Z,3.10
2018-11-23T01:23:21.961Z,3.20
2018-11-23T01:26:02.223Z,3.20
2018-11-23T01:28:43.345Z,3.20
2018-11-23T01:31:24.352Z,3.10
2018-11-23T01:34:05.340Z,3.10
2018-11-23T01:36:46.144Z,3.20
2018-11-23T01:39:26.660Z,3.20
2018-11-23T01:42:07.535Z,3.10
2018-11-23T01:44:51.590Z,3.10
2018-11-23T01:47:32.442Z,3.00
2018-11-23T01:50:14.581Z,3.10
2018-11-23T01:52:55.043Z,3.00
2018-11-23T01:55:35.789Z,3.00
2018-11-23T01:58:16.069Z,3.10
2018-11-23T02:00:56.998Z,3.10
2018-11-23T02:03:37.270Z,3.10
2018-11-23T02:06:17.433Z,3.10
2018-11-23T02:08:57.978Z,3.10
2018-11-23T02:11:38.292Z,3.10
2018-11-23T02:14:18.720Z,3.10
2018-11-23T02:16:59.089Z,3.20
2018-11-23T02:19:39.449Z,3.20
2018-11-23T02:22:19.974Z,3.20
2018-11-23T02:25:00.314Z,3.20
2018-11-23T02:27:40.813Z,3.20
2018-11-23T02:30:23.237Z,3.20
2018-11-23T02:33:04.014Z,3.20
2018-11-23T02:35:44.617Z,3.20
2018-11-23T02:38:24.949Z,3.20
2018-11-23T02:41:05.325Z,3.20
2018-11-23T02:43:46.470Z,3.30
2018-11-23T02:46:27.080Z,3.30
2018-11-23T02:49:07.980Z,3.30
2018-11-23T02:51:49.100Z,3.30
2018-11-23T02:54:29.711Z,3.30
2018-11-23T02:57:10.413Z,3.20
2018-11-23T02:59:50.985Z,3.20
2018-11-23T03:02:31.945Z,3.30
2018-11-23T03:05:13.565Z,3.30
2018-11-23T03:07:54.237Z,3.30
2018-11-23T03:10:35.281Z,3.40
2018-11-23T03:13:15.640Z,3.40
2018-11-23T03:15:55.882Z,3.30
2018-11-23T03:18:36.237Z,3.40
2018-11-23T03:21:16.756Z,3.30
2018-11-23T03:23:57.283Z,3.30
2018-11-23T03:26:37.777Z,3.40
2018-11-23T03:29:18.193Z,3.30
2018-11-23T03:31:46.771Z,3.40
2018-11-23T03:34:14.861Z,3.30
2018-11-23T03:37:02.450Z,3.30
2018-11-23T03:39:50.035Z,3.30
2018-11-23T03:42:37.662Z,3.30
2018-11-23T03:45:25.246Z,3.30
2018-11-23T03:48:12.845Z,3.30
2018-11-23T03:51:00.440Z,3.30
2018-11-23T03:53:48.014Z,3.30
2018-11-23T03:56:35.866Z,3.30
2018-11-23T03:59:23.533Z,3.40
2018-11-23T04:02:11.125Z,3.40
2018-11-23T04:04:58.724Z,3.40
2018-11-23T04:07:46.499Z,3.30
2018-11-23T04:10:34.080Z,3.30
2018-11-23T04:13:21.657Z,3.40
2018-11-23T04:16:09.261Z,3.30
2018-11-23T04:18:56.858Z,3.40
2018-11-23T04:21:44.445Z,3.40
2018-11-23T04:24:32.167Z,3.40
2018-11-23T04:27:19.742Z,3.50
2018-11-23T04:30:10.917Z,3.60
2018-11-23T04:32:58.768Z,3.50
2018-11-23T04:35:46.375Z,3.50
2018-11-23T04:41:46.288Z,3.50
2018-11-23T04:44:28.521Z,3.50
2018-11-23T04:50:14.117Z,3.40
2018-11-23T04:56:19.444Z,3.50
2018-11-23T04:58:47.537Z,3.50
2018-11-23T05:01:15.630Z,3.50
2018-11-23T05:03:43.741Z,3.50
2018-11-23T05:06:11.899Z,3.50
2018-11-23T05:08:39.990Z,3.50
2018-11-23T05:11:08.096Z,3.50
2018-11-23T05:13:36.172Z,3.60
2018-11-23T05:16:04.557Z,3.50
2018-11-23T05:18:32.644Z,3.50
2018-11-23T05:21:00.776Z,3.50
2018-11-23T05:23:29.056Z,3.60
2018-11-23T05:25:57.141Z,3.50
2018-11-23T05:28:25.227Z,3.60
2018-11-23T05:30:53.320Z,3.60
2018-11-23T05:33:21.432Z,3.50
2018-11-23T05:35:49.532Z,3.50
2018-11-23T05:38:17.977Z,3.60
2018-11-23T05:40:46.125Z,3.60
2018-11-23T05:43:14.291Z,3.60
2018-11-23T05:45:42.605Z,3.60
2018-11-23T05:48:11.132Z,3.60
2018-11-23T05:50:39.385Z,3.60
2018-11-23T05:53:07.498Z,3.60
2018-11-23T05:55:35.614Z,3.60
2018-11-23T05:58:03.711Z,3.60
2018-11-23T06:00:32.630Z,3.70
2018-11-23T06:03:00.744Z,3.70
2018-11-23T06:05:28.883Z,3.60
2018-11-23T06:07:57.114Z,3.60
2018-11-23T06:10:25.205Z,3.70
2018-11-23T06:12:53.316Z,3.70
2018-11-23T06:15:22.688Z,3.70
2018-11-23T06:17:51.005Z,3.70
2018-11-23T06:20:20.882Z,3.70
2018-11-23T06:22:49.895Z,3.70
2018-11-23T06:25:24.245Z,3.70
2018-11-23T06:27:52.518Z,3.70
2018-11-23T06:30:20.652Z,3.70
2018-11-23T06:33:00.252Z,3.70
2018-11-23T06:35:28.404Z,3.70
2018-11-23T06:37:56.529Z,3.70
2018-11-23T06:40:24.640Z,3.70
2018-11-23T06:42:52.756Z,3.70
2018-11-23T06:45:21.284Z,3.70
2018-11-23T06:47:49.389Z,3.70
2018-11-23T06:50:17.505Z,3.80
2018-11-23T06:52:45.618Z,3.80
2018-11-23T06:55:13.738Z,3.80
2018-11-23T06:57:42.233Z,3.80
2018-11-23T07:00:12.887Z,3.80
2018-11-23T07:02:41.454Z,3.90
2018-11-23T07:05:10.138Z,3.80
2018-11-23T07:07:38.246Z,3.80
2018-11-23T07:10:07.861Z,3.80
2018-11-23T07:12:36.232Z,3.80
2018-11-23T07:15:04.495Z,3.90
2018-11-23T07:17:32.624Z,3.90
2018-11-23T07:20:00.728Z,3.90
2018-11-23T07:22:28.863Z,3.90
2018-11-23T07:24:56.954Z,3.90
2018-11-23T07:27:25.056Z,4.00
2018-11-23T07:29:53.229Z,4.00
2018-11-23T07:32:21.319Z,4.00
2018-11-23T07:34:49.463Z,4.00
2018-11-23T07:37:17.564Z,4.00
2018-11-23T07:40:56.169Z,4.00
2018-11-23T07:43:24.281Z,4.00
2018-11-23T07:45:52.376Z,4.00
2018-11-23T07:48:20.553Z,4.00
2018-11-23T07:50:48.738Z,4.00
2018-11-23T07:53:16.899Z,4.10
2018-11-23T07:55:45.040Z,4.10
2018-11-23T07:58:13.180Z,4.10
2018-11-23T08:00:41.346Z,4.20
2018-11-23T08:03:09.500Z,4.20
2018-11-23T08:05:37.633Z,4.20
2018-11-23T08:08:06.097Z,4.20
2018-11-23T08:10:33.541Z,4.20
2018-11-23T08:13:01.798Z,4.20
2018-11-23T08:15:30.008Z,4.30
2018-11-23T08:17:58.197Z,4.30
2018-11-23T08:20:26.690Z,4.30
2018-11-23T08:22:54.881Z,4.30
2018-11-23T08:25:24.197Z,4.30
2018-11-23T08:27:53.767Z,4.30
2018-11-23T08:30:23.518Z,4.40
2018-11-23T08:32:51.741Z,4.40
2018-11-23T08:35:19.901Z,4.40
2018-11-23T08:37:48.082Z,4.40
2018-11-23T08:40:18.521Z,4.30
2018-11-23T08:42:47.645Z,4.40
2018-11-23T08:45:17.379Z,4.40
2018-11-23T08:47:45.500Z,4.40
2018-11-23T08:50:18.221Z,4.50
2018-11-23T08:52:46.338Z,4.50
2018-11-23T08:55:15.370Z,4.50
2018-11-23T08:57:43.738Z,4.50
2018-11-23T09:00:14.800Z,4.50
2018-11-23T09:02:43.966Z,4.50
2018-11-23T09:05:12.096Z,4.60
2018-11-23T09:07:40.286Z,4.70
2018-11-23T09:10:11.063Z,4.70
2018-11-23T09:12:39.189Z,4.60
2018-11-23T09:15:09.375Z,4.70
2018-11-23T09:17:37.600Z,4.60
2018-11-23T09:20:07.385Z,4.70
2018-11-23T09:22:35.482Z,4.70
2018-11-23T09:25:03.624Z,4.80
2018-11-23T09:27:31.744Z,4.80
2018-11-23T09:29:59.885Z,4.90
2018-11-23T09:32:28.074Z,4.90
2018-11-23T09:34:56.253Z,5.10
2018-11-23T09:37:24.410Z,5.30
2018-11-23T09:39:52.677Z,5.50
2018-11-23T09:42:20.859Z,5.70
2018-11-23T09:44:49.055Z,5.80
2018-11-23T09:47:17.196Z,5.80
2018-11-23T09:49:45.359Z,5.80
2018-11-23T09:52:13.588Z,5.90
2018-11-23T09:54:41.793Z,6.00
2018-11-23T09:57:09.961Z,6.10
2018-11-23T09:59:38.140Z,6.00
2018-11-23T10:02:06.313Z,5.90
2018-11-23T10:04:34.460Z,6.00
2018-11-23T10:07:02.617Z,6.00
2018-11-23T10:09:30.764Z,5.90
2018-11-23T10:11:58.888Z,5.90
2018-11-23T10:14:27.010Z,5.90
2018-11-23T10:16:55.181Z,6.00
2018-11-23T10:19:33.471Z,6.20
2018-11-23T10:22:01.609Z,6.40
2018-11-23T10:24:29.768Z,6.90
2018-11-23T10:26:57.950Z,7.00
2018-11-23T10:29:26.084Z,6.90
2018-11-23T10:31:54.278Z,6.90
2018-11-23T10:34:22.487Z,6.90
2018-11-23T10:36:50.630Z,6.80
2018-11-23T10:39:18.812Z,6.80
2018-11-23T10:41:46.979Z,7.00
2018-11-23T10:44:15.136Z,7.50
2018-11-23T10:46:43.478Z,8.30
2018-11-23T10:49:11.635Z,9.20
2018-11-23T10:51:39.784Z,9.80
2018-11-23T10:54:07.988Z,9.10
2018-11-23T10:56:36.157Z,8.40
2018-11-23T10:59:04.824Z,8.10
2018-11-23T11:01:38.474Z,8.00
2018-11-23T11:04:12.137Z,7.90
2018-11-23T11:06:45.841Z,7.80
2018-11-23T11:09:14.016Z,7.90
2018-11-23T11:11:42.649Z,8.20
2018-11-23T11:14:10.808Z,8.60
2018-11-23T11:16:38.982Z,8.80
2018-11-23T11:19:07.628Z,8.90
2018-11-23T11:21:35.800Z,8.90
2018-11-23T11:24:04.306Z,8.70
2018-11-23T11:26:32.457Z,8.50
2018-11-23T11:29:00.617Z,8.40
2018-11-23T11:31:29.009Z,8.50
2018-11-23T11:33:57.218Z,8.70
2018-11-23T11:36:25.429Z,8.60
2018-11-23T11:38:53.565Z,8.50
2018-11-23T11:41:21.749Z,8.50
2018-11-23T11:43:49.870Z,8.10
2018-11-23T11:46:18.045Z,7.80
2018-11-23T11:48:46.197Z,7.60
2018-11-23T11:51:14.761Z,7.60
2018-11-23T11:53:42.578Z,7.60
2018-11-23T11:56:10.760Z,7.60
2018-11-23T11:58:38.912Z,7.60
2018-11-23T12:01:07.205Z,7.80
2018-11-23T12:03:35.349Z,7.80
2018-11-23T12:06:03.565Z,7.70
2018-11-23T12:08:31.696Z,7.60
2018-11-23T12:10:59.888Z,7.60
2018-11-23T12:13:28.093Z,7.50
2018-11-23T12:15:56.262Z,7.50
2018-11-23T12:18:24.413Z,7.50
2018-11-23T12:20:52.594Z,7.40
2018-11-23T12:23:20.838Z,7.30
2018-11-23T12:25:49.028Z,7.10
2018-11-23T12:28:17.186Z,7.10
2018-11-23T12:30:45.391Z,7.10
2018-11-23T12:33:13.536Z,7.30
2018-11-23T12:35:41.691Z,7.30
2018-11-23T12:38:09.895Z,7.30
2018-11-23T12:40:38.080Z,7.20
2018-11-23T12:43:06.220Z,7.20
2018-11-23T12:45:34.484Z,7.50
2018-11-23T12:48:02.623Z,7.80
2018-11-23T12:50:30.775Z,7.70
2018-11-23T12:53:06.182Z,7.70
2018-11-23T12:55:27.136Z,7.90
2018-11-23T12:57:55.293Z,7.80
2018-11-23T13:00:25.656Z,7.90
2018-11-23T13:02:55.201Z,8.20
2018-11-23T13:05:24.383Z,8.70
2018-11-23T13:07:53.400Z,9.00
2018-11-23T13:10:22.335Z,9.00
2018-11-23T13:12:51.051Z,8.80
2018-11-23T13:15:18.700Z,8.70
2018-11-23T13:17:46.848Z,8.50
2018-11-23T13:20:15.731Z,8.40
2018-11-23T13:22:43.972Z,8.20
2018-11-23T13:25:14.717Z,8.10
2018-11-23T13:27:42.961Z,8.20
2018-11-23T13:30:15.901Z,8.00
2018-11-23T13:32:44.241Z,7.80
2018-11-23T13:35:14.188Z,7.90
2018-11-23T13:37:42.581Z,7.90
2018-11-23T13:40:13.318Z,7.70
2018-11-23T13:42:41.634Z,7.40
2018-11-23T13:45:11.462Z,7.10
2018-11-23T13:47:39.622Z,6.90
2018-11-23T13:50:10.173Z,6.70
2018-11-23T13:52:38.352Z,6.70
2018-11-23T13:55:07.160Z,6.60
2018-11-23T13:57:35.446Z,6.40
2018-11-23T14:00:04.341Z,6.30
2018-11-23T14:02:32.520Z,6.30
2018-11-23T14:05:00.726Z,6.30
2018-11-23T14:07:29.048Z,6.20
2018-11-23T14:09:57.357Z,6.10
2018-11-23T14:12:25.496Z,6.00
2018-11-23T14:14:53.642Z,5.90
2018-11-23T14:17:21.874Z,5.80
2018-11-23T14:19:50.150Z,5.80
2018-11-23T14:22:18.307Z,5.70
2018-11-23T14:24:46.496Z,5.60
2018-11-23T14:27:14.667Z,5.60
2018-11-23T14:29:42.799Z,5.50
2018-11-23T14:32:11.373Z,5.50
2018-11-23T14:34:39.657Z,5.50
2018-11-23T14:37:07.901Z,5.40
2018-11-23T14:39:36.280Z,5.40
2018-11-23T14:42:05.389Z,5.30
2018-11-23T14:44:33.616Z,5.30
2018-11-23T14:47:01.913Z,5.30
2018-11-23T14:49:30.205Z,5.20
2018-11-23T14:51:58.831Z,5.20
2018-11-23T14:54:27.097Z,5.00
2018-11-23T14:56:55.413Z,5.00
2018-11-23T14:59:23.672Z,5.00
2018-11-23T15:01:52.240Z,4.90
2018-11-23T15:04:20.114Z,4.90
2018-11-23T15:06:48.357Z,4.80
2018-11-23T15:09:16.683Z,4.80
2018-11-23T15:11:45.128Z,4.70
2018-11-23T15:14:13.501Z,4.70
2018-11-23T15:16:41.860Z,4.60
2018-11-23T15:19:10.057Z,4.60
2018-11-23T15:21:38.289Z,4.60
2018-11-23T15:24:06.542Z,4.50
2018-11-23T15:26:34.773Z,4.40
2018-11-23T15:29:02.949Z,4.40
2018-11-23T15:31:31.111Z,4.30
2018-11-23T15:34:00.162Z,4.30
2018-11-23T15:36:28.349Z,4.30
2018-11-23T15:38:56.565Z,4.30
2018-11-23T15:41:24.753Z,4.20
2018-11-23T15:43:52.985Z,4.20
2018-11-23T15:46:21.201Z,4.20
2018-11-23T15:48:49.522Z,4.10
2018-11-23T15:51:17.649Z,4.10
2018-11-23T15:53:45.897Z,4.10
2018-11-23T15:56:14.044Z,4.10
2018-11-23T15:58:42.206Z,4.10
2018-11-23T16:01:10.603Z,4.00
2018-11-23T16:03:38.750Z,4.00
2018-11-23T16:06:06.878Z,4.00
2018-11-23T16:08:35.057Z,3.90
2018-11-23T16:11:03.204Z,3.90
2018-11-23T16:13:31.357Z,3.80
2018-11-23T16:15:59.510Z,3.80
2018-11-23T16:18:27.748Z,3.80
2018-11-23T16:20:55.900Z,3.80
2018-11-23T16:23:24.099Z,3.70
2018-11-23T16:25:52.630Z,3.60
2018-11-23T16:28:20.830Z,3.70
2018-11-23T16:30:51.157Z,3.60
2018-11-23T16:33:20.938Z,3.60
2018-11-23T16:35:49.129Z,3.60
2018-11-23T16:38:18.734Z,3.60
2018-11-23T16:40:48.546Z,3.60
2018-11-23T16:43:16.944Z,3.60
2018-11-23T16:45:45.598Z,3.60
2018-11-23T16:48:14.508Z,3.60
2018-11-23T16:50:43.084Z,3.50
2018-11-23T16:53:11.308Z,3.40
2018-11-23T16:55:39.446Z,3.40
2018-11-23T16:58:10.743Z,3.40
2018-11-23T17:00:39.890Z,3.40
2018-11-23T17:03:10.757Z,3.40
2018-11-23T17:05:40.424Z,3.40
2018-11-23T17:08:09.240Z,3.40
2018-11-23T17:10:37.441Z,3.40
2018-11-23T17:13:05.657Z,3.30
2018-11-23T17:15:33.834Z,3.20
2018-11-23T17:18:01.983Z,3.10
2018-11-23T17:20:31.417Z,3.10
2018-11-23T17:23:00.707Z,3.10
2018-11-23T17:25:29.714Z,3.00
2018-11-23T17:27:59.325Z,3.00
2018-11-23T17:30:28.746Z,2.90
2018-11-23T17:32:57.038Z,3.00
2018-11-23T17:35:25.471Z,3.00
2018-11-23T17:37:53.629Z,3.00
2018-11-23T17:40:23.961Z,2.90
2018-11-23T17:42:52.236Z,3.00
2018-11-23T17:45:23.088Z,2.90
2018-11-23T17:47:52.029Z,2.90
2018-11-23T17:50:21.957Z,2.90
2018-11-23T17:52:50.871Z,2.90
2018-11-23T17:55:19.091Z,3.00
2018-11-23T17:57:47.749Z,2.90
2018-11-23T18:00:24.682Z,2.80
2018-11-23T18:02:53.664Z,2.80
2018-11-23T18:05:23.014Z,2.70
2018-11-23T18:07:51.436Z,2.90
2018-11-23T18:10:22.941Z,2.90
2018-11-23T18:12:51.349Z,3.00
2018-11-23T18:15:21.868Z,3.00
2018-11-23T18:17:51.044Z,3.10
2018-11-23T18:20:20.473Z,3.00
2018-11-23T18:22:49.424Z,3.00
2018-11-23T18:25:20.758Z,3.10
2018-11-23T18:27:49.393Z,3.00
2018-11-23T18:30:17.545Z,3.10
2018-11-23T18:32:45.904Z,3.20
2018-11-23T18:35:14.045Z,3.20
2018-11-23T18:37:42.181Z,3.20
2018-11-23T18:40:11.460Z,3.10
2018-11-23T18:42:39.592Z,3.10
2018-11-23T18:45:12.216Z,3.20
2018-11-23T18:47:41.139Z,3.10
2018-11-23T18:50:12.431Z,3.10
2018-11-23T18:52:40.665Z,3.10
2018-11-23T18:55:09.912Z,3.10
2018-11-23T18:57:38.192Z,3.00
2018-11-23T19:00:09.462Z,3.00
2018-11-23T19:02:37.600Z,3.00
2018-11-23T19:05:09.503Z,3.00
2018-11-23T19:07:37.665Z,3.00
2018-11-23T19:10:08.397Z,2.90
2018-11-23T19:12:36.578Z,2.90
2018-11-23T19:15:07.400Z,2.90
2018-11-23T19:17:35.674Z,2.80
2018-11-23T19:20:05.474Z,2.80
2018-11-23T19:22:33.774Z,2.70
2018-11-23T19:25:02.032Z,2.70
2018-11-23T19:27:30.205Z,2.70
2018-11-23T19:29:58.381Z,2.80
2018-11-23T19:32:26.592Z,2.90
2018-11-23T19:34:54.717Z,2.90
2018-11-23T19:37:22.883Z,3.00
2018-11-23T19:39:51.018Z,3.00
2018-11-23T19:42:19.147Z,3.00
2018-11-23T19:44:47.484Z,3.00
2018-11-23T19:47:15.977Z,3.10
2018-11-23T19:49:44.360Z,3.10
2018-11-23T19:52:12.519Z,3.20
2018-11-23T19:54:40.654Z,3.10
2018-11-23T19:57:08.942Z,3.10
2018-11-23T19:59:37.073Z,3.20
2018-11-23T20:02:05.219Z,3.20
2018-11-23T20:04:33.436Z,3.20
2018-11-23T20:07:01.592Z,3.30
2018-11-23T20:09:29.799Z,3.40
2018-11-23T20:11:57.925Z,3.40
2018-11-23T20:14:26.151Z,3.40
2018-11-23T20:16:54.397Z,3.50
2018-11-23T20:19:22.509Z,3.50
2018-11-23T20:21:50.819Z,3.60
2018-11-23T20:24:19.006Z,3.70
2018-11-23T20:26:47.228Z,3.60
2018-11-23T20:29:15.389Z,3.70
2018-11-23T20:31:43.516Z,3.70
2018-11-23T20:34:11.648Z,3.70
2018-11-23T20:36:39.781Z,3.80
2018-11-23T20:39:10.345Z,3.80
2018-11-23T20:41:38.749Z,3.90
2018-11-23T20:44:07.135Z,3.80
2018-11-23T20:46:35.736Z,3.80
2018-11-23T20:49:03.878Z,3.80
2018-11-23T20:51:32.000Z,3.80
2018-11-23T20:54:00.159Z,3.80
2018-11-23T20:56:28.300Z,3.80
2018-11-23T20:58:56.456Z,3.80
2018-11-23T21:01:24.597Z,3.80
2018-11-23T21:03:52.724Z,3.80
2018-11-23T21:06:20.904Z,3.80
2018-11-23T21:08:49.032Z,3.80
2018-11-23T21:11:17.136Z,3.90
2018-11-23T21:13:45.353Z,3.90
2018-11-23T21:16:13.453Z,3.90
2018-11-23T21:18:41.636Z,3.90
2018-11-23T21:21:09.737Z,3.90
2018-11-23T21:23:37.973Z,3.90
2018-11-23T21:26:06.228Z,3.90
2018-11-23T21:28:34.348Z,3.90
2018-11-23T21:31:02.477Z,4.00
2018-11-23T21:33:30.584Z,4.10
2018-11-23T21:35:58.672Z,4.00
2018-11-23T21:38:26.804Z,4.10
2018-11-23T21:40:54.912Z,4.20
2018-11-23T21:43:23.024Z,4.20
2018-11-23T21:45:51.152Z,4.30
2018-11-23T21:48:19.293Z,4.30
2018-11-23T21:50:47.403Z,4.30
2018-11-23T21:53:15.491Z,4.30
2018-11-23T21:55:43.639Z,4.30
2018-11-23T21:58:11.764Z,4.40
2018-11-23T22:00:39.941Z,4.40
2018-11-23T22:03:08.072Z,4.40
2018-11-23T22:05:36.171Z,4.30
2018-11-23T22:08:04.473Z,4.40
2018-11-23T22:10:32.577Z,4.40
2018-11-23T22:13:00.721Z,4.40
2018-11-23T22:15:28.881Z,4.40
2018-11-23T22:17:57.414Z,4.40
2018-11-23T22:20:25.969Z,4.50
2018-11-23T22:22:54.073Z,4.50
2018-11-23T22:25:22.938Z,4.50
2018-11-23T22:27:51.099Z,4.50
2018-11-23T22:30:22.828Z,4.50
2018-11-23T22:32:50.938Z,4.50
2018-11-23T22:35:19.048Z,4.50
2018-11-23T22:37:47.173Z,4.50
2018-11-23T22:40:18.044Z,4.60
2018-11-23T22:42:46.117Z,4.50
2018-11-23T22:45:15.409Z,4.60
2018-11-23T22:47:43.551Z,4.50
2018-11-23T22:50:14.094Z,4.60
2018-11-23T22:52:42.245Z,4.50
2018-11-23T22:55:11.380Z,4.50
2018-11-23T22:57:39.485Z,4.60
2018-11-23T23:00:11.124Z,4.50
2018-11-23T23:02:39.282Z,4.60
2018-11-23T23:05:07.646Z,4.60
2018-11-23T23:07:35.760Z,4.60
2018-11-23T23:10:04.233Z,4.60
2018-11-23T23:12:32.341Z,4.60
2018-11-23T23:15:00.489Z,4.70
2018-11-23T23:17:28.646Z,4.60
2018-11-23T23:19:56.765Z,4.70
2018-11-23T23:22:24.983Z,4.70
2018-11-23T23:24:53.068Z,4.70
2018-11-23T23:27:21.177Z,4.70
2018-11-23T23:29:49.317Z,4.70
2018-11-23T23:32:17.427Z,4.70
2018-11-23T23:34:45.532Z,4.70
2018-11-23T23:37:13.657Z,4.70
2018-11-23T23:39:41.811Z,4.70
2018-11-23T23:42:09.915Z,4.80
2018-11-23T23:47:12.618Z,4.80
2018-11-23T23:49:40.743Z,4.70
2018-11-23T23:52:09.065Z,4.80
2018-11-23T23:54:37.185Z,4.80
2018-11-23T23:57:05.340Z,4.90
2018-11-23T23:59:33.449Z,5.00
